首页
METAR-TAF:

METAR-TAF

机场 :

敖德薩國際機場

敖德薩, 乌克兰

纬度: 46-26N, 经度: 030-46E, 海拔: 42米

当前天气观测

该预报发布于31分钟前的11:00 UTC
风速8节,风向
温度 1°C
湿度 93%
气压 1032 hPa
能見度: 9000
阴天层高于1000英尺

METAR: UKOO 171100Z 01004MPS 9000 OVC010 01/M00 Q1032 R34/290054 NOSIG

时间: 13:31 (11:31 UTC)

预报

该预报发布于6小时和25分钟前的05:06 UTC
预报有效从17日的 06点(UTC)到 18日的 06点(UTC)
风速12节,风向北转东北,有时为23节阵风
能見度: 6000
多云层高于700英尺
散云层高于2000英尺, 积雨云.
短暂存在
从 17日的 06点(UTC)到 17日的 15点(UTC)
能見度: 2100
小阵雪, 轻雾
成为
从 17日的 15点(UTC)到 17日的 16点(UTC)
风速6节,风向北转西北

TAF: UKOO 170506Z 1706/1806 02006G12MPS 6000 BKN007 SCT020CB TX03/1712Z TNM00/1706Z TEMPO 1706/1715 2100 -SHSN BR BECMG 1715/1716 34003MPS

超过4000个机场的气象观测和天气预报(METAR&TAF报告)。

可查询的气象台以黄色和红色小点在地图上表示。

将鼠标移到小点上方,可查看气象台名称。

然后点击查看天气观测和预报。

如需切换地图:点击带黑十字的绿色按钮放大地图;点击带横线的绿色按钮缩小地图;或者点击绿色箭头查看邻近地区的地图。


METAR-TAF: